createdAt,value
2019-02-22T00:02:42.943Z,17.00
2019-02-22T00:05:31.401Z,15.07
2019-02-22T00:08:19.559Z,18.17
2019-02-22T00:11:07.593Z,19.70
2019-02-22T00:13:55.791Z,18.57
2019-02-22T00:16:43.929Z,19.47
2019-02-22T00:19:31.687Z,15.80
2019-02-22T00:22:19.513Z,15.53
2019-02-22T00:25:07.749Z,23.87
2019-02-22T00:27:55.482Z,18.20
2019-02-22T00:30:43.719Z,22.53
2019-02-22T00:33:31.717Z,21.33
2019-02-22T00:36:20.074Z,21.27
2019-02-22T00:39:08.263Z,20.23
2019-02-22T00:41:56.633Z,15.97
2019-02-22T00:44:44.434Z,15.30
2019-02-22T00:47:31.913Z,17.40
2019-02-22T00:50:20.160Z,15.57
2019-02-22T00:53:08.170Z,22.07
2019-02-22T00:55:56.142Z,19.83
2019-02-22T00:58:44.145Z,18.30
2019-02-22T01:01:31.690Z,14.40
2019-02-22T01:04:20.102Z,18.43
2019-02-22T01:07:08.375Z,25.13
2019-02-22T01:09:56.472Z,17.83
2019-02-22T01:12:44.546Z,19.27
2019-02-22T01:15:32.420Z,16.90
2019-02-22T01:18:20.542Z,18.63
2019-02-22T01:21:08.499Z,18.90
2019-02-22T01:23:56.403Z,16.87
2019-02-22T01:26:44.248Z,20.97
2019-02-22T01:29:31.835Z,27.37
2019-02-22T01:32:19.624Z,20.60
2019-02-22T01:35:07.782Z,15.03
2019-02-22T01:37:55.871Z,23.93
2019-02-22T01:40:44.265Z,25.47
2019-02-22T01:43:33.463Z,21.47
2019-02-22T01:46:21.541Z,18.27
2019-02-22T01:49:09.814Z,20.20
2019-02-22T01:51:57.734Z,13.97
2019-02-22T01:54:45.332Z,23.23
2019-02-22T01:57:33.233Z,22.67
2019-02-22T02:00:21.344Z,19.10
2019-02-22T02:03:09.490Z,26.43
2019-02-22T02:05:57.546Z,17.93
2019-02-22T02:08:45.852Z,20.73
2019-02-22T02:11:34.147Z,23.47
2019-02-22T02:14:22.139Z,21.50
2019-02-22T02:17:10.363Z,17.40
2019-02-22T02:19:58.545Z,20.20
2019-02-22T02:22:46.902Z,23.10
2019-02-22T02:25:34.981Z,26.13
2019-02-22T02:28:22.896Z,13.83
2019-02-22T02:31:10.874Z,19.90
2019-02-22T02:33:58.747Z,20.40
2019-02-22T02:36:46.718Z,17.97
2019-02-22T02:39:34.717Z,16.87
2019-02-22T02:42:22.995Z,21.00
2019-02-22T02:45:11.038Z,21.30
2019-02-22T02:47:59.323Z,19.37
2019-02-22T02:50:47.345Z,27.17
2019-02-22T02:53:34.947Z,17.97
2019-02-22T02:56:22.877Z,19.63
2019-02-22T02:59:10.936Z,20.07
2019-02-22T03:01:59.480Z,16.03
2019-02-22T03:04:47.522Z,19.73
2019-02-22T03:07:46.398Z,20.43
2019-02-22T03:10:34.329Z,22.43
2019-02-22T03:13:22.183Z,20.73
2019-02-22T03:16:10.274Z,20.83
2019-02-22T03:18:58.236Z,21.27
2019-02-22T03:21:46.267Z,15.30
2019-02-22T03:24:34.116Z,17.60
2019-02-22T03:27:22.016Z,19.83
2019-02-22T03:30:10.240Z,20.40
2019-02-22T03:32:58.171Z,17.73
2019-02-22T03:35:46.259Z,18.50
2019-02-22T03:38:33.866Z,19.60
2019-02-22T03:41:32.459Z,12.13
2019-02-22T03:44:12.030Z,17.93
2019-02-22T03:46:59.617Z,19.37
2019-02-22T03:49:47.731Z,21.73
2019-02-22T03:52:40.642Z,19.97
2019-02-22T03:55:28.593Z,21.00
2019-02-22T03:58:16.561Z,21.47
2019-02-22T04:01:04.867Z,23.23
2019-02-22T04:03:52.839Z,19.17
2019-02-22T04:06:40.695Z,22.47
2019-02-22T04:09:28.623Z,16.30
2019-02-22T04:12:16.291Z,16.80
2019-02-22T04:15:04.596Z,23.00
2019-02-22T04:17:52.509Z,17.87
2019-02-22T04:20:40.438Z,20.83
2019-02-22T04:23:28.760Z,16.77
2019-02-22T04:26:16.820Z,15.90
2019-02-22T04:29:05.058Z,21.27
2019-02-22T04:31:52.914Z,19.20
2019-02-22T04:34:40.573Z,20.07
2019-02-22T04:37:28.592Z,18.53
2019-02-22T04:40:16.159Z,20.70
2019-02-22T04:43:04.482Z,22.53
2019-02-22T04:45:52.415Z,17.50
2019-02-22T04:48:40.222Z,17.77
2019-02-22T04:51:28.265Z,16.00
2019-02-22T04:54:16.260Z,22.57
2019-02-22T04:57:04.181Z,20.23
2019-02-22T04:59:52.132Z,20.13
2019-02-22T05:02:40.292Z,22.60
2019-02-22T05:05:28.120Z,17.80
2019-02-22T05:08:16.192Z,16.50
2019-02-22T05:11:04.457Z,16.17
2019-02-22T05:13:52.635Z,15.10
2019-02-22T05:16:40.617Z,21.33
2019-02-22T05:19:28.352Z,15.97
2019-02-22T05:22:16.247Z,22.70
2019-02-22T05:25:04.800Z,18.13
2019-02-22T05:27:52.687Z,16.60
2019-02-22T05:30:40.350Z,22.93
2019-02-22T05:33:28.383Z,20.67
2019-02-22T05:36:16.403Z,18.57
2019-02-22T05:39:18.003Z,17.57
2019-02-22T05:41:54.853Z,16.03
2019-02-22T05:44:43.093Z,22.03
2019-02-22T05:47:31.073Z,19.70
2019-02-22T05:50:19.098Z,19.77
2019-02-22T05:53:07.603Z,18.27
2019-02-22T05:55:55.532Z,16.93
2019-02-22T05:58:43.642Z,23.80
2019-02-22T06:01:31.866Z,17.13
2019-02-22T06:04:19.652Z,19.07
2019-02-22T06:07:07.668Z,23.00
2019-02-22T06:09:55.489Z,24.23
2019-02-22T06:12:43.585Z,22.53
2019-02-22T06:15:32.066Z,22.77
2019-02-22T06:18:22.812Z,24.73
2019-02-22T06:21:11.223Z,17.47
2019-02-22T06:23:59.035Z,17.43
2019-02-22T06:26:46.650Z,20.63
2019-02-22T06:29:34.295Z,21.00
2019-02-22T06:32:22.003Z,26.33
2019-02-22T06:35:10.301Z,19.43
2019-02-22T06:37:58.396Z,19.80
2019-02-22T06:40:48.101Z,22.27
2019-02-22T06:43:35.888Z,21.27
2019-02-22T06:46:23.944Z,18.13
2019-02-22T06:49:11.935Z,23.00
2019-02-22T06:52:03.704Z,17.33
2019-02-22T06:54:51.278Z,13.90
2019-02-22T06:57:43.613Z,17.47
2019-02-22T07:00:31.449Z,16.63
2019-02-22T07:03:19.557Z,17.27
2019-02-22T07:06:07.441Z,15.37
2019-02-22T07:08:55.822Z,21.57
2019-02-22T07:11:53.774Z,18.90
2019-02-22T07:14:41.752Z,22.20
2019-02-22T07:17:30.251Z,20.57
2019-02-22T07:20:18.044Z,15.40
2019-02-22T07:23:06.246Z,17.17
2019-02-22T07:25:54.089Z,18.53
2019-02-22T07:28:42.671Z,20.10
2019-02-22T07:31:30.227Z,19.37
2019-02-22T07:34:18.040Z,19.27
2019-02-22T07:37:05.579Z,15.03
2019-02-22T07:39:53.844Z,23.30
2019-02-22T07:42:41.708Z,17.27
2019-02-22T07:45:29.682Z,20.23
2019-02-22T07:48:17.521Z,20.37
2019-02-22T07:51:05.260Z,16.13
2019-02-22T07:53:53.160Z,24.17
2019-02-22T07:56:41.264Z,24.50
2019-02-22T07:59:29.208Z,20.47
2019-02-22T08:02:17.667Z,26.30
2019-02-22T08:05:05.952Z,25.00
2019-02-22T08:07:54.986Z,16.97
2019-02-22T08:10:42.622Z,17.93
2019-02-22T08:13:31.018Z,19.07
2019-02-22T08:16:18.837Z,22.63
2019-02-22T08:19:06.917Z,20.67
2019-02-22T08:21:55.202Z,24.80
2019-02-22T08:24:43.223Z,20.73
2019-02-22T08:27:31.365Z,22.10
2019-02-22T08:30:19.281Z,25.83
2019-02-22T08:33:07.227Z,21.00
2019-02-22T08:35:55.481Z,23.20
2019-02-22T08:38:43.295Z,15.87
2019-02-22T08:41:31.017Z,22.90
2019-02-22T08:44:19.022Z,23.63
2019-02-22T08:47:07.051Z,23.53
2019-02-22T08:49:55.123Z,22.03
2019-02-22T08:52:43.077Z,21.17
2019-02-22T08:55:31.128Z,15.70
2019-02-22T08:58:19.072Z,21.60
2019-02-22T09:01:07.017Z,20.77
2019-02-22T09:03:54.585Z,27.03
2019-02-22T09:06:42.411Z,22.70
2019-02-22T09:09:30.775Z,21.47
2019-02-22T09:12:18.908Z,27.37
2019-02-22T09:15:07.249Z,22.23
2019-02-22T09:17:55.405Z,17.40
2019-02-22T09:20:43.094Z,24.60
2019-02-22T09:23:31.302Z,17.87
2019-02-22T09:26:19.565Z,17.40
2019-02-22T09:29:07.714Z,20.77
2019-02-22T09:31:56.099Z,21.60
2019-02-22T09:34:46.187Z,18.90
2019-02-22T09:37:34.246Z,13.17
2019-02-22T09:40:22.406Z,21.83
2019-02-22T09:43:10.001Z,17.87
2019-02-22T09:45:58.162Z,22.37
2019-02-22T09:48:46.322Z,23.57
2019-02-22T09:51:34.447Z,20.60
2019-02-22T09:54:22.552Z,22.13
2019-02-22T09:57:10.316Z,27.33
2019-02-22T09:59:58.695Z,18.57
2019-02-22T10:02:46.609Z,19.80
2019-02-22T10:05:34.609Z,19.47
2019-02-22T10:08:22.711Z,23.40
2019-02-22T10:11:10.724Z,17.87
2019-02-22T10:14:06.237Z,20.87
2019-02-22T10:16:48.364Z,23.50
2019-02-22T10:19:36.013Z,23.57
2019-02-22T10:22:23.933Z,19.40
2019-02-22T10:25:11.848Z,25.23
2019-02-22T10:27:59.427Z,22.17
2019-02-22T10:30:47.082Z,18.50
2019-02-22T10:33:36.866Z,23.03
2019-02-22T10:36:24.919Z,24.43
2019-02-22T10:39:13.098Z,21.80
2019-02-22T10:42:01.054Z,22.20
2019-02-22T10:44:48.860Z,17.40
2019-02-22T10:47:36.717Z,20.67
2019-02-22T10:50:24.698Z,19.00
2019-02-22T10:53:12.851Z,22.03
2019-02-22T10:56:00.772Z,21.83
2019-02-22T10:58:48.921Z,20.87
2019-02-22T11:01:37.098Z,18.43
2019-02-22T11:04:25.274Z,18.93
2019-02-22T11:07:13.147Z,18.67
2019-02-22T11:10:01.087Z,19.17
2019-02-22T11:12:48.904Z,21.27
2019-02-22T11:15:36.777Z,28.27
2019-02-22T11:18:24.663Z,19.73
2019-02-22T11:21:12.584Z,23.97
2019-02-22T11:24:00.941Z,17.53
2019-02-22T11:26:48.947Z,19.43
2019-02-22T11:29:36.894Z,24.20
2019-02-22T11:32:25.078Z,23.40
2019-02-22T11:35:12.539Z,22.27
2019-02-22T11:38:00.633Z,24.80
2019-02-22T11:40:48.759Z,22.97
2019-02-22T11:43:37.175Z,23.43
2019-02-22T11:46:25.044Z,21.83
2019-02-22T11:49:13.156Z,29.47
2019-02-22T11:52:01.178Z,21.87
2019-02-22T11:54:49.262Z,17.50
2019-02-22T11:57:37.427Z,26.57
2019-02-22T12:00:26.324Z,21.47
2019-02-22T12:03:24.255Z,17.17
2019-02-22T12:06:04.029Z,21.67
2019-02-22T12:08:52.409Z,21.07
2019-02-22T12:11:40.494Z,19.50
2019-02-22T12:14:28.650Z,19.23
2019-02-22T12:22:30.892Z,24.00
2019-02-22T12:25:18.759Z,21.00
2019-02-22T12:28:06.440Z,30.03
2019-02-22T12:30:54.818Z,20.43
2019-02-22T12:43:39.979Z,24.63
2019-02-22T12:46:27.839Z,19.77
2019-02-22T12:49:15.732Z,21.33
2019-02-22T12:52:03.546Z,21.87
2019-02-22T12:54:51.894Z,23.77
2019-02-22T12:57:40.112Z,24.37
2019-02-22T13:00:28.195Z,21.97
2019-02-22T13:03:16.480Z,25.23
2019-02-22T13:06:04.512Z,27.77
2019-02-22T13:08:53.057Z,25.20
2019-02-22T13:11:40.895Z,20.93
2019-02-22T13:14:28.449Z,22.23
2019-02-22T13:17:16.289Z,24.63
2019-02-22T13:20:04.858Z,21.17
2019-02-22T13:22:52.855Z,19.37
2019-02-22T13:25:40.993Z,21.00
2019-02-22T13:28:28.956Z,20.17
2019-02-22T13:31:17.130Z,20.00
2019-02-22T13:34:05.042Z,19.80
2019-02-22T13:36:52.912Z,22.60
2019-02-22T13:39:40.500Z,22.83
2019-02-22T13:42:28.809Z,24.20
2019-02-22T13:45:26.163Z,25.33
2019-02-22T13:48:06.615Z,24.73
2019-02-22T13:50:54.503Z,23.43
2019-02-22T13:53:42.381Z,27.03
2019-02-22T13:56:30.319Z,30.63
2019-02-22T13:59:18.239Z,26.93
2019-02-22T14:02:06.146Z,27.70
2019-02-22T14:04:54.302Z,25.03
2019-02-22T14:07:50.745Z,25.13
2019-02-22T14:10:38.962Z,25.13
2019-02-22T14:13:26.990Z,32.67
2019-02-22T14:16:15.127Z,23.70
2019-02-22T14:19:03.088Z,25.00
2019-02-22T14:21:51.273Z,26.60
2019-02-22T14:24:39.040Z,30.73
2019-02-22T14:27:26.839Z,29.43
2019-02-22T14:30:15.050Z,29.43
2019-02-22T14:33:02.850Z,22.40
2019-02-22T14:35:51.101Z,22.33
2019-02-22T14:38:39.028Z,22.77
2019-02-22T14:41:27.971Z,25.47
2019-02-22T14:44:16.310Z,21.10
2019-02-22T14:47:04.423Z,19.77
2019-02-22T14:49:52.694Z,23.53
2019-02-22T14:52:40.863Z,20.30
2019-02-22T14:55:28.733Z,23.97
2019-02-22T14:58:17.079Z,19.23
2019-02-22T15:01:05.211Z,20.17
2019-02-22T15:03:53.461Z,28.20
2019-02-22T15:06:40.999Z,22.67
2019-02-22T15:09:29.123Z,20.30
2019-02-22T15:12:17.356Z,24.13
2019-02-22T15:15:06.377Z,21.33
2019-02-22T15:17:57.142Z,18.27
2019-02-22T15:20:45.546Z,20.80
2019-02-22T15:23:33.330Z,21.03
2019-02-22T15:26:21.498Z,22.47
2019-02-22T15:29:09.522Z,23.03
2019-02-22T15:31:57.417Z,19.33
2019-02-22T15:34:45.187Z,24.43
2019-02-22T15:37:33.168Z,23.23
2019-02-22T15:40:21.595Z,20.17
2019-02-22T15:43:09.972Z,21.77
2019-02-22T15:45:58.273Z,23.57
2019-02-22T15:48:47.082Z,27.20
2019-02-22T15:51:34.772Z,22.83
2019-02-22T15:54:22.896Z,23.77
2019-02-22T15:57:10.902Z,25.93
2019-02-22T15:59:58.967Z,23.07
2019-02-22T16:02:47.192Z,22.23
2019-02-22T16:05:37.567Z,25.17
2019-02-22T16:08:25.127Z,23.27
2019-02-22T16:11:12.789Z,28.27
2019-02-22T16:14:01.144Z,23.47
2019-02-22T16:16:49.065Z,23.93
2019-02-22T16:19:37.134Z,26.40
2019-02-22T16:22:25.055Z,24.47
2019-02-22T16:25:19.507Z,28.43
2019-02-22T16:28:02.883Z,26.60
2019-02-22T16:30:51.463Z,24.63
2019-02-22T16:33:40.005Z,23.03
2019-02-22T16:36:27.805Z,25.97
2019-02-22T16:39:17.265Z,22.47
2019-02-22T16:42:06.031Z,20.70
2019-02-22T16:44:54.149Z,21.00
2019-02-22T16:47:41.837Z,20.23
2019-02-22T16:50:30.849Z,21.80
2019-02-22T16:53:18.494Z,25.80
2019-02-22T16:56:06.611Z,21.00
2019-02-22T16:58:55.317Z,23.23
2019-02-22T17:01:43.663Z,20.57
2019-02-22T17:04:32.685Z,25.23
2019-02-22T17:07:20.921Z,24.63
2019-02-22T17:10:10.286Z,21.63
2019-02-22T17:12:58.430Z,20.60
2019-02-22T17:15:46.377Z,22.73
2019-02-22T17:18:34.617Z,22.77
2019-02-22T17:21:22.695Z,17.97
2019-02-22T17:24:11.266Z,20.70
2019-02-22T17:26:59.516Z,18.63
2019-02-22T17:29:47.759Z,28.70
2019-02-22T17:32:35.624Z,20.50
2019-02-22T17:35:24.146Z,19.03
2019-02-22T17:38:12.408Z,20.17
2019-02-22T17:41:01.446Z,20.73
2019-02-22T17:43:49.434Z,19.17
2019-02-22T17:46:39.999Z,18.50
2019-02-22T17:49:28.005Z,15.53
2019-02-22T17:52:17.361Z,21.47
2019-02-22T17:55:07.967Z,16.67
2019-02-22T17:57:56.007Z,17.37
2019-02-22T18:00:44.249Z,17.80
2019-02-22T18:03:33.004Z,18.90
2019-02-22T18:06:21.087Z,20.03
2019-02-22T18:09:09.393Z,20.17
2019-02-22T18:11:57.677Z,20.37
2019-02-22T18:14:45.600Z,19.80
2019-02-22T18:17:34.092Z,22.50
2019-02-22T18:20:22.660Z,21.20
2019-02-22T18:23:11.025Z,23.07
2019-02-22T18:25:59.077Z,24.23
2019-02-22T18:28:47.067Z,22.27
2019-02-22T18:31:35.122Z,22.53
2019-02-22T18:34:22.925Z,24.73
2019-02-22T18:37:10.825Z,27.10
2019-02-22T18:39:58.790Z,24.33
2019-02-22T18:42:46.870Z,25.83
2019-02-22T18:45:35.088Z,26.80
2019-02-22T18:48:24.368Z,26.50
2019-02-22T18:51:13.205Z,25.20
2019-02-22T18:54:02.407Z,25.00
2019-02-22T18:56:50.688Z,26.80
2019-02-22T18:59:38.724Z,25.13
2019-02-22T19:02:26.645Z,27.63
2019-02-22T19:05:14.267Z,27.20
2019-02-22T19:08:02.275Z,28.13
2019-02-22T19:10:50.487Z,24.80
2019-02-22T19:13:38.574Z,26.17
2019-02-22T19:16:26.640Z,28.50
2019-02-22T19:19:14.974Z,30.27
2019-02-22T19:22:03.113Z,26.63
2019-02-22T19:24:52.378Z,28.27
2019-02-22T19:27:40.229Z,25.43
2019-02-22T19:30:28.050Z,26.67
2019-02-22T19:33:16.109Z,28.57
2019-02-22T19:36:03.907Z,31.53
2019-02-22T19:38:51.890Z,28.47
2019-02-22T19:41:39.924Z,28.73
2019-02-22T19:44:28.043Z,29.70
2019-02-22T19:47:16.004Z,29.47
2019-02-22T19:50:03.868Z,26.37
2019-02-22T19:52:51.661Z,27.27
2019-02-22T19:55:40.129Z,28.33
2019-02-22T19:58:28.090Z,31.87
2019-02-22T20:01:23.798Z,26.83
2019-02-22T20:04:13.681Z,28.10
2019-02-22T20:07:04.155Z,27.97
2019-02-22T20:09:56.297Z,30.60
2019-02-22T20:12:45.137Z,28.33
2019-02-22T20:15:34.201Z,28.97
2019-02-22T20:18:22.638Z,25.87
2019-02-22T20:21:11.072Z,28.80
2019-02-22T20:23:59.169Z,27.53
2019-02-22T20:26:47.090Z,27.60
2019-02-22T20:29:35.448Z,26.33
2019-02-22T20:32:23.414Z,29.13
2019-02-22T20:35:14.342Z,26.03
2019-02-22T20:38:02.412Z,27.97
2019-02-22T20:40:50.461Z,28.53
2019-02-22T20:43:38.667Z,31.10
2019-02-22T20:46:27.009Z,32.07
2019-02-22T20:49:14.574Z,32.97
2019-02-22T20:52:02.252Z,29.77
2019-02-22T20:54:50.434Z,30.63
2019-02-22T20:57:38.332Z,29.37
2019-02-22T21:00:26.337Z,34.00
2019-02-22T21:03:16.263Z,34.60
2019-02-22T21:06:04.498Z,28.27
2019-02-22T21:08:52.699Z,29.70
2019-02-22T21:11:40.573Z,33.47
2019-02-22T21:14:30.575Z,30.30
2019-02-22T21:17:18.651Z,36.23
2019-02-22T21:20:07.884Z,31.20
2019-02-22T21:22:55.921Z,29.80
2019-02-22T21:25:44.382Z,32.73
2019-02-22T21:28:32.674Z,34.73
2019-02-22T21:31:20.935Z,30.27
2019-02-22T21:34:08.745Z,31.90
2019-02-22T21:36:57.274Z,33.60
2019-02-22T21:39:45.747Z,36.20
2019-02-22T21:42:33.993Z,32.00
2019-02-22T21:45:22.159Z,33.07
2019-02-22T21:48:10.204Z,35.23
2019-02-22T21:50:58.260Z,32.37
2019-02-22T21:53:46.505Z,33.80
2019-02-22T21:56:34.365Z,38.20
2019-02-22T21:59:22.156Z,35.77
2019-02-22T22:02:10.304Z,42.43
2019-02-22T22:04:57.926Z,40.90
2019-02-22T22:07:45.911Z,38.03
2019-02-22T22:10:33.858Z,43.90
2019-02-22T22:13:22.193Z,43.83
2019-02-22T22:16:09.837Z,39.77
2019-02-22T22:18:57.636Z,45.00
2019-02-22T22:21:45.746Z,46.17
2019-02-22T22:24:33.800Z,51.17
2019-02-22T22:27:21.570Z,43.53
2019-02-22T22:30:10.486Z,40.50
2019-02-22T22:32:58.542Z,45.57
2019-02-22T22:35:46.519Z,42.83
2019-02-22T22:38:34.487Z,43.03
2019-02-22T22:41:22.445Z,44.80
2019-02-22T22:44:10.293Z,41.23
2019-02-22T22:46:58.526Z,46.50
2019-02-22T22:49:46.416Z,44.37
2019-02-22T22:52:34.536Z,47.87
2019-02-22T22:55:22.424Z,48.23
2019-02-22T22:58:10.251Z,43.37
2019-02-22T23:01:08.898Z,43.00
2019-02-22T23:03:57.209Z,48.53
2019-02-22T23:06:45.191Z,43.47
2019-02-22T23:09:33.140Z,45.80
2019-02-22T23:12:21.125Z,44.50
2019-02-22T23:15:09.063Z,45.07
2019-02-22T23:17:57.134Z,46.10
2019-02-22T23:20:45.011Z,41.27
2019-02-22T23:23:32.958Z,44.60
2019-02-22T23:26:20.999Z,47.17
2019-02-22T23:29:09.119Z,43.57
2019-02-22T23:31:57.102Z,48.53
2019-02-22T23:34:45.359Z,52.10
2019-02-22T23:37:33.140Z,44.23
2019-02-22T23:40:21.787Z,45.90
2019-02-22T23:43:09.980Z,42.57
2019-02-22T23:45:57.924Z,43.97
2019-02-22T23:48:46.149Z,44.07
2019-02-22T23:51:34.176Z,42.40
2019-02-22T23:54:22.363Z,41.13
2019-02-22T23:57:10.694Z,42.70
2019-02-22T23:59:58.300Z,42.60
